Time;durP1;ratioP1;P1;durP2;ratioP2;P2;SDS_P1;SDS_P2;PMS_P1;PMS_P2;Temp;Humidity;BMP_temperature;BMP_pressure;BME280_temperature;BME280_humidity;BME280_pressure;Samples;Min_cycle;Max_cycle;Signal;HPM_P1;HPM_P2
2021/06/28 00:00:40;;;;;;;;;7.75;6.50;;;;;19.99;70.25;100595.28;4974339;28;45511;-61
2021/06/28 00:03:05;;;;;;;;;8.75;7.50;;;;;20.00;70.52;100596.91;4974605;28;45346;-60
2021/06/28 00:05:31;;;;;;;;;8.00;7.00;;;;;20.00;70.45;100596.06;4973928;28;45480;-60
2021/06/28 00:07:56;;;;;;;;;7.50;6.50;;;;;20.00;70.47;100594.25;4974262;28;45361;-61
2021/06/28 00:10:23;;;;;;;;;6.50;6.50;;;;;19.99;70.72;100592.59;4973448;28;63680;-61
2021/06/28 00:12:49;;;;;;;;;6.50;5.00;;;;;20.00;70.80;100591.59;4973907;28;45968;-60
2021/06/28 00:15:16;;;;;;;;;8.00;6.00;;;;;20.01;70.54;100592.38;4974307;28;45618;-61
2021/06/28 00:17:42;;;;;;;;;5.00;5.00;;;;;20.00;70.60;100588.06;4974137;28;45242;-61
2021/06/28 00:20:09;;;;;;;;;7.75;6.50;;;;;20.01;70.45;100587.06;4973666;28;45288;-61
2021/06/28 00:22:35;;;;;;;;;11.00;6.25;;;;;20.02;70.44;100594.03;4973631;28;46136;-60
2021/06/28 00:25:00;;;;;;;;;7.00;7.00;;;;;20.02;70.60;100589.53;4973939;28;45354;-60
2021/06/28 00:27:25;;;;;;;;;6.50;5.00;;;;;20.03;70.33;100590.34;4973912;28;45718;-61
2021/06/28 00:29:51;;;;;;;;;6.00;6.00;;;;;20.02;70.48;100583.38;4973072;28;67903;-61
2021/06/28 00:32:16;;;;;;;;;7.50;7.50;;;;;20.02;70.49;100568.22;4973640;28;45310;-60
2021/06/28 00:34:42;;;;;;;;;7.75;6.75;;;;;20.03;70.30;100569.00;4973260;28;54999;-60
2021/06/28 00:37:08;;;;;;;;;9.25;8.50;;;;;20.03;70.51;100558.34;4973861;28;45315;-61
2021/06/28 00:39:33;;;;;;;;;8.75;8.75;;;;;20.01;70.37;100557.72;4973725;28;45477;-60
2021/06/28 00:41:58;;;;;;;;;8.50;6.75;;;;;20.01;70.14;100545.22;4973645;28;46075;-60
2021/06/28 00:44:24;;;;;;;;;8.00;6.00;;;;;20.00;70.10;100538.25;4973662;28;45223;-61
2021/06/28 00:46:49;;;;;;;;;9.00;8.00;;;;;20.00;70.35;100535.56;4972752;28;67980;-60
2021/06/28 00:49:15;;;;;;;;;8.00;8.00;;;;;19.99;70.30;100536.59;4972763;28;67929;-60
2021/06/28 00:51:40;;;;;;;;;7.75;6.00;;;;;19.97;70.51;100527.13;4972764;28;64627;-60
2021/06/28 00:54:05;;;;;;;;;6.25;6.25;;;;;19.94;70.24;100533.69;4972568;28;70721;-60
2021/06/28 00:56:31;;;;;;;;;7.25;6.00;;;;;19.91;70.47;100526.09;4971475;28;66789;-61
2021/06/28 00:58:57;;;;;;;;;6.75;6.50;;;;;19.89;70.42;100528.13;4971379;28;64774;-60
2021/06/28 01:01:22;;;;;;;;;7.75;7.00;;;;;19.87;70.18;100525.63;4973346;28;46250;-61
2021/06/28 01:03:47;;;;;;;;;7.25;6.25;;;;;19.89;70.48;100532.63;4972385;28;69560;-61
2021/06/28 01:06:14;;;;;;;;;6.50;6.00;;;;;19.87;70.29;100538.16;4972625;28;60560;-61
2021/06/28 01:08:40;;;;;;;;;7.00;6.00;;;;;19.85;70.46;100533.03;4973522;28;45411;-61
2021/06/28 01:11:05;;;;;;;;;12.00;7.00;;;;;19.85;70.42;100529.53;4972396;28;68488;-61
2021/06/28 01:13:31;;;;;;;;;9.00;8.25;;;;;19.86;70.47;100533.84;4972494;28;62017;-61
2021/06/28 01:15:56;;;;;;;;;9.50;8.50;;;;;19.85;70.48;100525.03;4971985;28;45352;-61
2021/06/28 01:18:22;;;;;;;;;8.25;8.00;;;;;19.85;70.11;100521.53;4972368;28;50880;-61
2021/06/28 01:20:47;;;;;;;;;7.00;5.00;;;;;19.85;70.45;100516.19;4973565;28;72427;-61
2021/06/28 01:23:28;;;;;;;;;5.75;5.75;;;;;19.84;70.37;100512.72;4957781;28;70006;-60
2021/06/28 01:25:56;;;;;;;;;8.50;7.00;;;;;19.83;70.26;100518.22;4976291;28;45488;-61
2021/06/28 01:28:21;;;;;;;;;8.75;5.75;;;;;19.81;70.51;100518.44;4976192;28;45307;-61
2021/06/28 01:30:47;;;;;;;;;8.25;6.00;;;;;19.80;70.43;100508.78;4974683;28;45328;-60
2021/06/28 01:33:12;;;;;;;;;8.00;7.50;;;;;19.79;70.35;100500.97;4976185;28;45322;-60
2021/06/28 01:35:39;;;;;;;;;8.00;7.00;;;;;19.78;70.47;100513.50;4976014;28;45583;-61
2021/06/28 01:38:04;;;;;;;;;8.25;6.75;;;;;19.78;70.39;100508.16;4974841;28;45270;-60
2021/06/28 01:40:30;;;;;;;;;9.50;7.25;;;;;19.78;70.31;100510.00;4975769;28;46049;-61
2021/06/28 01:42:55;;;;;;;;;9.00;7.00;;;;;19.79;70.57;100500.97;4975868;28;45251;-60
2021/06/28 01:45:22;;;;;;;;;8.00;7.25;;;;;19.78;70.64;100496.66;4975272;28;58525;-61
2021/06/28 01:47:49;;;;;;;;;7.25;7.25;;;;;19.76;70.46;100494.22;4975863;28;45466;-61
2021/06/28 01:50:14;;;;;;;;;8.50;8.25;;;;;19.76;70.48;100494.22;4975857;28;46789;-61
2021/06/28 01:52:40;;;;;;;;;8.50;7.75;;;;;19.76;70.66;100504.03;4975836;28;45483;-61
2021/06/28 01:55:07;;;;;;;;;7.50;6.25;;;;;19.75;70.13;100513.06;4976126;28;45421;-60
2021/06/28 01:57:40;;;;;;;;;6.00;6.00;;;;;19.72;70.44;100520.44;4975853;28;45560;-61
2021/06/28 02:00:06;;;;;;;;;6.00;6.00;;;;;19.69;70.75;100534.16;4975759;28;46184;-60
2021/06/28 02:02:31;;;;;;;;;6.75;6.00;;;;;19.69;70.60;100520.00;4975436;28;45290;-60
2021/06/28 02:04:56;;;;;;;;;7.25;6.00;;;;;19.67;70.60;100511.38;4976728;27;62483;-61
2021/06/28 02:07:24;;;;;;;;;5.25;5.25;;;;;19.67;70.85;100509.53;4974914;28;60952;-60
2021/06/28 02:09:50;;;;;;;;;7.75;7.00;;;;;19.67;71.28;100522.06;4975466;28;46932;-62
2021/06/28 02:12:16;;;;;;;;;7.25;7.00;;;;;19.68;70.70;100545.84;4975634;28;45324;-60
2021/06/28 02:14:41;;;;;;;;;7.25;6.50;;;;;19.67;70.66;100552.19;4974858;28;63222;-60
2021/06/28 02:17:07;;;;;;;;;6.25;6.25;;;;;19.66;70.92;100539.88;4974841;28;61492;-61
2021/06/28 02:19:32;;;;;;;;;7.75;6.00;;;;;19.65;71.25;100540.88;4974283;28;68772;-62
2021/06/28 02:21:57;;;;;;;;;6.00;6.00;;;;;19.65;71.42;100535.56;4975230;28;49721;-61
2021/06/28 02:24:23;;;;;;;;;11.00;9.25;;;;;19.65;71.44;100527.56;4957594;28;55532;-61
2021/06/28 02:26:48;;;;;;;;;7.75;6.75;;;;;19.67;71.24;100533.53;4975401;28;45477;-60
2021/06/28 02:29:14;;;;;;;;;5.75;5.25;;;;;19.67;72.01;100533.53;4974517;28;45303;-61
2021/06/28 02:31:39;;;;;;;;;7.50;7.00;;;;;19.68;71.30;100535.16;4975397;28;45327;-61
2021/06/28 02:34:04;;;;;;;;;7.00;7.00;;;;;19.69;71.51;100528.81;4974555;28;64249;-61
2021/06/28 02:36:30;;;;;;;;;8.00;7.00;;;;;19.71;71.24;100531.31;4974848;28;58874;-61
2021/06/28 02:38:55;;;;;;;;;8.00;6.00;;;;;19.73;71.46;100531.94;4974516;28;65551;-61
2021/06/28 02:41:22;;;;;;;;;7.50;6.00;;;;;19.74;71.39;100514.91;4974853;28;45461;-61
2021/06/28 02:43:48;;;;;;;;;6.00;5.25;;;;;19.74;71.09;100520.25;4975432;28;45319;-60
2021/06/28 02:46:13;;;;;;;;;5.50;4.50;;;;;19.73;70.84;100519.41;4975345;28;45254;-60
2021/06/28 02:48:39;;;;;;;;;6.00;5.00;;;;;19.75;70.67;100523.72;4973643;28;48165;-60
2021/06/28 02:51:05;;;;;;;;;8.75;6.50;;;;;19.73;70.55;100513.28;4975172;28;45181;-60
2021/06/28 02:53:30;;;;;;;;;3.00;3.00;;;;;19.74;70.22;100509.59;4975235;28;45290;-60
2021/06/28 02:56:12;;;;;;;;;5.75;4.00;;;;;19.73;70.33;100515.94;4975170;28;45573;-61
2021/06/28 02:58:37;;;;;;;;;4.00;4.00;;;;;19.72;70.18;100520.44;4975157;28;45530;-60
2021/06/28 03:01:02;;;;;;;;;3.00;2.50;;;;;19.72;70.58;100524.94;4974867;28;48154;-60
2021/06/28 03:03:28;;;;;;;;;3.00;3.00;;;;;19.71;70.26;100526.78;4974385;28;60623;-60
2021/06/28 03:05:53;;;;;;;;;3.00;3.00;;;;;19.72;69.23;100541.75;4974120;28;64786;-60
2021/06/28 03:08:19;;;;;;;;;2.50;2.50;;;;;19.71;70.03;100539.31;4973564;28;46970;-62
2021/06/28 03:10:44;;;;;;;;;4.50;2.50;;;;;19.71;69.49;100534.78;4974434;28;59422;-61
2021/06/28 03:13:09;;;;;;;;;2.25;2.25;;;;;19.70;69.43;100546.47;4973715;28;45268;-61
2021/06/28 03:15:35;;;;;;;;;2.00;2.00;;;;;19.69;69.72;100544.00;4975012;28;45228;-61
2021/06/28 03:18:00;;;;;;;;;2.00;2.00;;;;;19.68;69.78;100550.34;4974711;28;45255;-60
2021/06/28 03:20:26;;;;;;;;;3.00;2.25;;;;;19.66;70.21;100536.41;4973458;28;73598;-61
2021/06/28 03:22:52;;;;;;;;;2.25;2.25;;;;;19.66;69.81;100525.72;4974739;28;45272;-61
2021/06/28 03:25:17;;;;;;;;;1.25;1.25;;;;;19.67;69.61;100527.38;4974039;28;65049;-60
2021/06/28 03:27:43;;;;;;;;;2.75;2.75;;;;;19.66;69.39;100523.88;4974631;28;45386;-61
2021/06/28 03:30:11;;;;;;;;;4.25;3.00;;;;;19.66;69.39;100521.22;4974544;28;45436;-60
2021/06/28 03:32:36;;;;;;;;;3.50;2.00;;;;;19.64;69.43;100517.09;4974738;28;45380;-61
2021/06/28 03:35:01;;;;;;;;;2.00;2.00;;;;;19.64;69.81;100503.78;4973973;28;61396;-61
2021/06/28 03:37:27;;;;;;;;;4.50;4.25;;;;;19.63;69.33;100480.81;4989569;28;47406;-60
2021/06/28 03:39:52;;;;;;;;;4.00;2.00;;;;;19.62;69.58;100473.84;4974690;28;45288;-60
2021/06/28 03:42:18;;;;;;;;;3.00;3.00;;;;;19.61;69.29;100474.84;4972549;28;64498;-61
2021/06/28 03:44:43;;;;;;;;;4.00;3.75;;;;;19.60;69.24;100463.41;4973945;28;56397;-60
2021/06/28 03:47:08;;;;;;;;;3.00;3.00;;;;;19.59;69.45;100440.44;4974300;28;46162;-60
2021/06/28 03:49:34;;;;;;;;;2.00;2.00;;;;;19.58;69.18;100462.75;4973615;28;70348;-60
2021/06/28 03:51:59;;;;;;;;;2.50;2.50;;;;;19.57;69.57;100485.09;4972700;28;60528;-61
2021/06/28 03:54:24;;;;;;;;;1.75;1.75;;;;;19.55;69.58;100500.47;4973554;28;67753;-60
2021/06/28 03:56:50;;;;;;;;;1.50;1.50;;;;;19.52;69.36;100514.19;4973690;28;63459;-60
2021/06/28 03:59:18;;;;;;;;;1.75;1.75;;;;;19.50;69.44;100524.22;4974288;28;45256;-60
2021/06/28 04:01:43;;;;;;;;;1.25;1.25;;;;;19.47;69.13;100509.41;4973270;28;45478;-61
2021/06/28 04:04:09;;;;;;;;;5.00;3.00;;;;;19.45;69.22;100526.63;4974398;28;45451;-60
2021/06/28 04:06:35;;;;;;;;;1.75;1.75;;;;;19.45;69.62;100537.28;4974068;28;45359;-60
2021/06/28 04:09:00;;;;;;;;;2.00;2.00;;;;;19.42;69.36;100520.69;4974409;28;45427;-60
2021/06/28 04:11:28;;;;;;;;;2.00;2.00;;;;;19.42;69.49;100520.69;4973705;28;55569;-61
2021/06/28 04:13:54;;;;;;;;;2.75;2.25;;;;;19.40;69.36;100530.72;4974363;28;45465;-61
2021/06/28 04:16:19;;;;;;;;;3.50;2.00;;;;;19.39;69.64;100526.41;4973185;28;67337;-60
2021/06/28 04:18:44;;;;;;;;;4.00;2.50;;;;;19.38;69.62;100502.59;4973214;28;60569;-61
2021/06/28 04:21:10;;;;;;;;;2.50;2.50;;;;;19.37;69.10;100533.75;4973523;28;58917;-60
2021/06/28 04:23:35;;;;;;;;;1.00;1.00;;;;;19.36;69.59;100549.91;4973728;28;55785;-60
2021/06/28 04:26:01;;;;;;;;;3.25;1.25;;;;;19.33;69.44;100537.81;4974227;28;45365;-61
2021/06/28 04:28:26;;;;;;;;;3.00;1.50;;;;;19.32;69.80;100520.19;4975853;27;45343;-60
2021/06/28 04:30:51;;;;;;;;;1.00;1.00;;;;;19.31;69.54;100529.19;4973313;28;66397;-60
2021/06/28 04:33:17;;;;;;;;;2.00;2.00;;;;;19.28;70.02;100549.06;4973471;28;59989;-61
2021/06/28 04:35:42;;;;;;;;;2.00;2.00;;;;;19.27;69.78;100538.59;4972884;28;72956;-61
2021/06/28 04:38:07;;;;;;;;;1.00;1.00;;;;;19.27;69.67;100546.59;4973398;28;61567;-60
2021/06/28 04:40:33;;;;;;;;;2.00;1.00;;;;;19.25;69.88;100540.63;4974068;28;45777;-61
2021/06/28 04:42:58;;;;;;;;;1.00;1.00;;;;;19.25;69.95;100540.63;4972780;28;65603;-60
2021/06/28 04:45:24;;;;;;;;;1.25;1.00;;;;;19.23;70.06;100548.81;4973651;28;46081;-61
2021/06/28 04:47:50;;;;;;;;;3.00;2.00;;;;;19.23;69.98;100548.81;4973705;28;45323;-60
2021/06/28 04:50:16;;;;;;;;;1.50;1.50;;;;;19.22;69.97;100541.84;4973768;28;45441;-60
2021/06/28 04:52:41;;;;;;;;;1.75;1.75;;;;;19.22;69.82;100552.50;4974861;28;45563;-61
2021/06/28 04:55:12;;;;;;;;;2.75;2.75;;;;;19.22;70.03;100549.00;4976521;28;46048;-61
2021/06/28 04:57:37;;;;;;;;;2.00;2.00;;;;;19.21;70.00;100550.84;4976805;28;45838;-60
2021/06/28 05:00:07;;;;;;;;;3.00;1.00;;;;;19.18;70.14;100545.91;4976971;28;45607;-60
2021/06/28 05:02:32;;;;;;;;;2.00;2.00;;;;;19.17;69.79;100546.09;4976315;28;45565;-60
2021/06/28 05:04:57;;;;;;;;;3.25;3.00;;;;;19.16;69.67;100565.75;4978410;27;45338;-60
2021/06/28 05:07:23;;;;;;;;;2.75;1.25;;;;;19.15;69.85;100569.44;4975770;28;67113;-61
2021/06/28 05:09:48;;;;;;;;;1.00;1.00;;;;;19.12;70.21;100557.34;4977143;28;45430;-60
2021/06/28 05:12:14;;;;;;;;;4.50;2.50;;;;;19.12;70.02;100566.13;4975966;28;64254;-60
2021/06/28 05:14:40;;;;;;;;;2.00;2.00;;;;;19.13;70.30;100583.75;4976456;28;45320;-60
2021/06/28 05:17:08;;;;;;;;;1.25;1.25;;;;;19.12;69.77;100584.78;4975597;28;69860;-60
2021/06/28 05:19:33;;;;;;;;;2.00;2.00;;;;;19.11;69.70;100588.47;4976436;28;45448;-60
2021/06/28 05:21:59;;;;;;;;;2.00;2.00;;;;;19.09;69.95;100579.03;4976346;28;45503;-60
2021/06/28 05:24:24;;;;;;;;;2.50;2.50;;;;;19.08;69.91;100588.84;4976019;28;45986;-61
2021/06/28 05:26:50;;;;;;;;;2.00;2.00;;;;;19.08;69.89;100604.81;4975356;28;64055;-60
2021/06/28 05:29:16;;;;;;;;;4.25;4.25;;;;;19.05;69.48;100575.94;4976204;28;45383;-60
2021/06/28 05:31:41;;;;;;;;;4.25;2.50;;;;;19.03;69.68;100575.28;4975915;28;54348;-60
2021/06/28 05:34:06;;;;;;;;;12.75;9.75;;;;;19.03;69.95;100582.44;4976187;28;45427;-61
2021/06/28 05:36:33;;;;;;;;;6.25;3.25;;;;;19.03;69.67;100563.81;4975413;28;68050;-60
2021/06/28 05:38:58;;;;;;;;;3.75;3.75;;;;;19.02;69.79;100571.00;4976486;28;45341;-60
2021/06/28 05:41:24;;;;;;;;;20.25;20.00;;;;;19.03;69.73;100579.78;4976092;28;45267;-60
2021/06/28 05:43:49;;;;;;;;;31.75;30.00;;;;;19.02;69.90;100578.97;4974550;28;55029;-60
2021/06/28 05:46:15;;;;;;;;;19.00;19.00;;;;;19.03;70.14;100580.63;4976081;28;45358;-60
2021/06/28 05:48:40;;;;;;;;;5.00;5.00;;;;;19.01;69.91;100577.31;4975977;28;45359;-60
2021/06/28 05:51:05;;;;;;;;;6.75;6.00;;;;;19.01;70.19;100571.16;4975275;28;58171;-61
2021/06/28 05:53:32;;;;;;;;;7.25;7.25;;;;;19.01;69.93;100556.03;4975113;28;64383;-60
2021/06/28 05:55:58;;;;;;;;;9.00;5.75;;;;;19.01;70.13;100541.88;4976142;28;45387;-60
2021/06/28 05:58:25;;;;;;;;;8.00;6.00;;;;;19.02;70.21;100552.34;4976012;28;45469;-60
2021/06/28 06:00:51;;;;;;;;;13.75;13.75;;;;;19.01;70.09;100540.06;4975994;28;45504;-60
2021/06/28 06:03:17;;;;;;;;;11.00;8.00;;;;;19.02;70.13;100536.38;4975463;28;46472;-60
2021/06/28 06:05:42;;;;;;;;;8.25;5.25;;;;;19.02;70.42;100546.19;4974382;28;69080;-60
2021/06/28 06:08:07;;;;;;;;;5.25;3.75;;;;;19.02;70.01;100557.66;4975179;28;61600;-60
2021/06/28 06:10:33;;;;;;;;;3.50;3.00;;;;;19.01;70.72;100545.38;4975360;28;47998;-59
2021/06/28 06:12:58;;;;;;;;;2.00;2.00;;;;;19.01;70.21;100529.41;4974833;28;73089;-60
2021/06/28 06:15:24;;;;;;;;;13.50;12.50;;;;;19.00;70.53;100530.41;4975486;28;50286;-60
2021/06/28 06:17:49;;;;;;;;;5.00;5.00;;;;;19.02;70.63;100538.19;4990942;28;45705;-60
2021/06/28 06:20:14;;;;;;;;;4.50;3.75;;;;;19.04;70.46;100545.00;4975553;28;45480;-60
2021/06/28 06:22:40;;;;;;;;;5.00;3.50;;;;;19.05;70.54;100562.63;4974515;28;70362;-61
2021/06/28 06:25:06;;;;;;;;;6.00;6.00;;;;;19.06;70.66;100563.44;4975717;28;45368;-60
2021/06/28 06:27:31;;;;;;;;;5.75;5.00;;;;;19.05;70.90;100562.63;4975614;28;45540;-60
2021/06/28 06:29:57;;;;;;;;;4.00;4.00;;;;;19.05;70.62;100581.25;4975709;28;45378;-60
2021/06/28 06:32:23;;;;;;;;;2.50;2.50;;;;;19.05;70.47;100589.25;4975525;28;46020;-60
2021/06/28 06:34:48;;;;;;;;;5.00;4.00;;;;;19.05;70.76;100589.25;4975124;28;45445;-60
2021/06/28 06:37:13;;;;;;;;;15.25;12.25;;;;;19.05;71.00;100602.56;4975295;28;53862;-61
2021/06/28 06:39:39;;;;;;;;;84.25;69.50;;;;;19.06;70.93;100603.38;4974665;28;64836;-60
2021/06/28 06:42:04;;;;;;;;;63.50;45.00;;;;;19.06;70.87;100601.53;4974632;28;60579;-61
2021/06/28 06:44:30;;;;;;;;;42.50;36.75;;;;;19.07;71.08;100602.34;4977069;27;45294;-60
2021/06/28 06:46:55;;;;;;;;;11.75;9.75;;;;;19.09;71.11;100609.13;4975522;28;45299;-60
2021/06/28 06:49:21;;;;;;;;;5.25;4.75;;;;;19.09;71.11;100627.75;4977475;28;45346;-61
2021/06/28 06:51:46;;;;;;;;;5.25;4.00;;;;;19.11;70.91;100622.25;4974373;28;75550;-60
2021/06/28 06:54:12;;;;;;;;;4.25;4.00;;;;;19.10;70.88;100620.63;4976582;28;45375;-60
2021/06/28 06:56:38;;;;;;;;;4.00;4.00;;;;;19.11;70.71;100628.41;4975374;28;45453;-60
2021/06/28 06:59:03;;;;;;;;;6.00;4.00;;;;;19.12;70.83;100624.72;4975306;28;45577;-61
2021/06/28 07:01:31;;;;;;;;;11.00;9.00;;;;;19.12;70.61;100607.94;4975085;28;46088;-60
2021/06/28 07:03:56;;;;;;;;;12.25;12.25;;;;;19.13;70.45;100614.91;4975013;28;45247;-60
2021/06/28 07:06:21;;;;;;;;;13.75;12.50;;;;;19.13;70.32;100622.91;4975144;28;45208;-60
2021/06/28 07:08:47;;;;;;;;;6.50;6.50;;;;;19.13;70.39;100618.38;4974490;28;63673;-61
2021/06/28 07:11:12;;;;;;;;;4.25;4.25;;;;;19.15;70.57;100604.06;4974683;28;52871;-60
2021/06/28 07:13:42;;;;;;;;;6.25;4.50;;;;;19.17;70.58;100602.03;4977027;28;45426;-60
2021/06/28 07:16:08;;;;;;;;;5.25;4.00;;;;;19.20;70.38;100609.63;4975247;28;45454;-60
2021/06/28 07:18:33;;;;;;;;;3.00;3.00;;;;;19.22;70.56;100620.91;4975076;28;45276;-60
2021/06/28 07:20:59;;;;;;;;;5.75;5.00;;;;;19.24;70.49;100624.22;4974821;28;46178;-60
2021/06/28 07:23:24;;;;;;;;;3.00;3.00;;;;;19.28;70.38;100604.19;4974520;28;49739;-59
2021/06/28 07:25:50;;;;;;;;;3.00;3.00;;;;;19.31;70.24;100606.47;4974899;28;45499;-60
2021/06/28 07:28:15;;;;;;;;;4.50;2.75;;;;;19.36;70.45;100613.88;4974371;28;62342;-60
2021/06/28 07:30:41;;;;;;;;;4.50;3.75;;;;;19.40;69.95;100623.13;4974073;28;65292;-60
2021/06/28 07:33:07;;;;;;;;;6.50;5.50;;;;;19.46;70.61;100622.34;4974639;28;45288;-59
2021/06/28 07:35:32;;;;;;;;;5.75;4.00;;;;;19.51;69.79;100619.94;4974765;28;45190;-59
2021/06/28 07:37:57;;;;;;;;;4.50;4.50;;;;;19.58;69.93;100620.00;4974696;28;45231;-60
2021/06/28 07:40:23;;;;;;;;;4.50;4.50;;;;;19.67;69.21;100621.47;4973960;28;57319;-60
2021/06/28 07:42:49;;;;;;;;;3.00;3.00;;;;;19.80;69.70;100627.94;4974523;28;45543;-60
2021/06/28 07:45:14;;;;;;;;;6.25;4.00;;;;;19.97;70.24;100629.31;4974557;28;45339;-60
2021/06/28 07:47:40;;;;;;;;;3.00;3.00;;;;;20.16;69.75;100630.44;4974935;28;45350;-60
2021/06/28 07:50:07;;;;;;;;;6.00;5.00;;;;;20.38;69.18;100641.03;4974420;28;45892;-60
2021/06/28 07:52:32;;;;;;;;;4.00;4.00;;;;;20.59;68.86;100642.75;4974428;28;45910;-59
2021/06/28 07:54:59;;;;;;;;;5.00;5.00;;;;;20.79;67.54;100630.50;4974579;28;45453;-60
2021/06/28 07:57:25;;;;;;;;;5.50;4.50;;;;;20.94;67.04;100627.66;4974607;28;45530;-61
2021/06/28 07:59:50;;;;;;;;;5.75;4.00;;;;;21.10;66.62;100632.63;4974643;28;45473;-61
2021/06/28 08:02:16;;;;;;;;;4.00;3.00;;;;;21.27;66.08;100633.03;4973435;28;70959;-59
2021/06/28 08:04:41;;;;;;;;;3.00;3.00;;;;;21.43;65.94;100637.16;4974460;28;45339;-60
2021/06/28 08:07:07;;;;;;;;;2.00;2.00;;;;;21.58;64.49;100628.09;4973841;28;55912;-59
2021/06/28 08:09:32;;;;;;;;;3.25;2.50;;;;;21.72;63.27;100623.59;4973526;28;59516;-60
2021/06/28 08:11:58;;;;;;;;;4.00;2.50;;;;;21.89;63.30;100632.00;4973468;28;63235;-59
2021/06/28 08:14:24;;;;;;;;;3.75;3.00;;;;;22.04;62.73;100629.06;4974362;28;45401;-59
2021/06/28 08:16:50;;;;;;;;;3.50;2.25;;;;;22.21;62.36;100634.81;4975441;28;45271;-60
2021/06/28 08:19:15;;;;;;;;;4.00;2.00;;;;;22.37;61.70;100631.63;4973544;28;48823;-59
2021/06/28 08:21:40;;;;;;;;;1.75;1.75;;;;;22.58;60.47;100637.75;4974150;28;45380;-61
2021/06/28 08:24:07;;;;;;;;;2.25;2.00;;;;;22.77;61.40;100640.56;4974119;28;45755;-60
2021/06/28 08:26:33;;;;;;;;;2.00;2.00;;;;;22.94;59.45;100628.28;4973586;28;45316;-61
2021/06/28 08:29:02;;;;;;;;;4.00;2.00;;;;;23.11;59.15;100630.44;4973413;28;45343;-61
2021/06/28 08:31:28;;;;;;;;;1.00;1.00;;;;;23.27;57.82;100624.59;4973869;28;45771;-62
2021/06/28 08:33:53;;;;;;;;;2.00;2.00;;;;;23.46;57.65;100629.16;4974007;28;45901;-61
2021/06/28 08:36:19;;;;;;;;;1.00;1.00;;;;;23.62;58.64;100623.22;4974001;28;45355;-60
2021/06/28 08:38:44;;;;;;;;;2.00;2.00;;;;;23.79;58.09;100633.38;4972919;28;63851;-62
2021/06/28 08:41:15;;;;;;;;;2.00;1.00;;;;;23.95;56.32;100629.28;4973758;28;45416;-61
2021/06/28 08:43:44;;;;;;;;;3.00;2.00;;;;;24.05;55.36;100636.88;4956874;28;45390;-61
2021/06/28 08:46:10;;;;;;;;;2.75;1.50;;;;;24.17;55.25;100634.25;4973987;28;45367;-61
2021/06/28 08:48:35;;;;;;;;;3.00;1.75;;;;;24.24;53.83;100637.69;4971534;28;69856;-60
2021/06/28 08:51:00;;;;;;;;;1.00;1.00;;;;;24.30;54.07;100636.78;4973625;28;45336;-62
2021/06/28 08:53:26;;;;;;;;;1.25;0.50;;;;;24.37;54.20;100634.84;4971564;28;65874;-60
2021/06/28 08:55:52;;;;;;;;;1.00;1.00;;;;;24.41;53.65;100637.91;4971954;28;58749;-61
2021/06/28 08:58:19;;;;;;;;;0.00;0.00;;;;;24.48;54.46;100638.63;4972296;28;45982;-61
2021/06/28 09:00:45;;;;;;;;;7.75;6.00;;;;;24.57;53.53;100634.59;4973368;28;45682;-61
2021/06/28 09:03:10;;;;;;;;;0.00;0.00;;;;;24.62;52.86;100638.47;4973645;28;45542;-60
2021/06/28 09:06:11;;;;;;;;;1.75;1.75;;;;;24.65;52.23;100644.19;4973787;28;45343;-61
2021/06/28 09:08:37;;;;;;;;;3.25;3.25;;;;;24.66;52.38;100643.16;4961825;28;46200;-61
2021/06/28 09:11:03;;;;;;;;;11.00;9.00;;;;;24.66;52.06;100643.16;4972135;28;45322;-60
2021/06/28 09:13:45;;;;;;;;;2.00;2.00;;;;;24.63;51.66;100646.28;4972335;28;45407;-61
2021/06/28 09:16:14;;;;;;;;;1.00;1.00;;;;;24.60;50.94;100646.72;4973407;28;45310;-60
2021/06/28 09:19:03;;;;;;;;;4.00;3.00;;;;;24.55;51.24;100654.66;4973057;28;46380;-61
2021/06/28 09:21:31;;;;;;;;;1.00;1.00;;;;;24.51;51.27;100650.78;4973256;28;45886;-61
2021/06/28 09:23:58;;;;;;;;;1.00;1.00;;;;;24.47;51.43;100653.09;4973395;28;45468;-61
2021/06/28 09:26:34;;;;;;;;;1.00;1.00;;;;;24.44;51.25;100653.56;4973586;28;45394;-60
2021/06/28 09:29:01;;;;;;;;;3.00;3.00;;;;;24.42;51.41;100659.13;4971952;28;45336;-61
2021/06/28 09:31:31;;;;;;;;;2.00;2.00;;;;;24.44;51.37;100659.72;4973185;28;45414;-61
2021/06/28 09:34:06;;;;;;;;;2.00;2.00;;;;;24.54;51.10;100658.38;4973259;28;45356;-61
2021/06/28 09:36:31;;;;;;;;;1.00;1.00;;;;;24.64;51.02;100657.88;4973018;28;45527;-61
2021/06/28 09:38:57;;;;;;;;;1.25;1.00;;;;;24.70;50.81;100665.00;4973174;28;45823;-60
2021/06/28 09:41:25;;;;;;;;;1.75;1.00;;;;;24.75;50.07;100659.78;4974952;28;71600;-60
2021/06/28 09:43:52;;;;;;;;;1.50;1.00;;;;;24.75;49.65;100665.16;4976325;28;45540;-60
2021/06/28 09:46:21;;;;;;;;;2.00;2.00;;;;;24.76;49.96;100668.69;4976412;28;45493;-60
2021/06/28 09:48:48;;;;;;;;;2.25;1.00;;;;;24.76;48.72;100663.31;4976188;28;45324;-61
2021/06/28 09:51:29;;;;;;;;;0.00;0.00;;;;;24.80;49.11;100667.19;4976040;28;45349;-61
2021/06/28 09:54:07;;;;;;;;;1.25;1.25;;;;;24.87;49.35;100668.72;4976528;28;45385;-61
2021/06/28 09:56:45;;;;;;;;;2.00;2.00;;;;;24.95;49.44;100666.75;4976253;28;45438;-61
2021/06/28 09:59:29;;;;;;;;;2.00;2.00;;;;;24.93;49.07;100672.34;4976221;28;46189;-60
2021/06/28 10:02:15;;;;;;;;;4.00;2.25;;;;;24.93;48.39;100671.53;4975834;28;45182;-61
2021/06/28 10:07:15;;;;;;;;;1.00;0.75;;;;;25.14;46.07;100667.50;4976028;28;45387;-60
2021/06/28 10:09:41;;;;;;;;;2.25;1.50;;;;;25.27;46.72;100672.69;4975748;28;46303;-60
2021/06/28 10:12:09;;;;;;;;;2.50;1.00;;;;;25.42;47.04;100674.94;4973490;28;72697;-60
2021/06/28 10:14:34;;;;;;;;;1.00;1.00;;;;;25.58;47.20;100669.94;4958809;28;45344;-61
2021/06/28 10:17:00;;;;;;;;;0.50;0.50;;;;;25.68;45.47;100677.44;4973767;28;57781;-60
2021/06/28 10:19:25;;;;;;;;;2.00;1.00;;;;;25.68;45.34;100678.25;4973645;28;60950;-61
2021/06/28 10:21:50;;;;;;;;;1.50;1.50;;;;;25.67;45.67;100687.38;4974818;28;65319;-60
2021/06/28 10:24:16;;;;;;;;;1.50;1.00;;;;;25.64;46.25;100685.16;4957765;28;52978;-61
2021/06/28 10:26:41;;;;;;;;;1.75;1.00;;;;;25.59;46.58;100687.72;4974477;28;45450;-61
2021/06/28 10:29:06;;;;;;;;;2.00;2.00;;;;;25.55;46.04;100692.75;4957182;28;69794;-61
2021/06/28 10:31:32;;;;;;;;;2.00;1.25;;;;;25.48;45.85;100681.25;4974745;28;66103;-61
2021/06/28 10:34:00;;;;;;;;;1.25;1.25;;;;;25.44;45.12;100685.47;4975708;28;45260;-61
2021/06/28 10:36:37;;;;;;;;;2.00;1.00;;;;;25.39;45.64;100679.97;4977592;28;45477;-61
2021/06/28 10:39:03;;;;;;;;;1.00;1.00;;;;;25.42;45.34;100685.69;4975588;28;45239;-61
2021/06/28 10:41:50;;;;;;;;;1.00;1.00;;;;;25.44;45.33;100674.72;4975437;28;45388;-61
2021/06/28 10:44:16;;;;;;;;;2.00;1.00;;;;;25.44;44.84;100669.34;4975761;28;45303;-61
2021/06/28 10:46:46;;;;;;;;;1.00;0.75;;;;;25.41;44.86;100675.97;4975307;28;45531;-61
2021/06/28 10:49:12;;;;;;;;;0.25;0.25;;;;;25.44;44.96;100678.22;4975190;28;46058;-61
2021/06/28 10:51:41;;;;;;;;;2.00;2.00;;;;;25.45;45.53;100674.50;4974311;28;60352;-59
2021/06/28 10:54:07;;;;;;;;;1.50;1.50;;;;;25.43;45.51;100673.06;4975376;28;45332;-61
2021/06/28 10:56:33;;;;;;;;;2.25;2.00;;;;;25.37;45.98;100671.31;4975522;28;45307;-61
2021/06/28 10:59:23;;;;;;;;;3.00;3.00;;;;;25.32;46.56;100669.28;4975213;28;46330;-60
2021/06/28 11:01:54;;;;;;;;;1.00;1.00;;;;;25.25;47.02;100661.34;4975414;28;46046;-60
2021/06/28 11:04:29;;;;;;;;;1.00;0.75;;;;;25.19;46.17;100664.94;4990570;28;45228;-60
2021/06/28 11:07:07;;;;;;;;;1.00;1.00;;;;;25.12;46.32;100658.84;4975228;28;45584;-61
2021/06/28 11:09:47;;;;;;;;;2.00;0.75;;;;;25.09;45.64;100664.69;4975074;28;46260;-61
2021/06/28 11:12:19;;;;;;;;;0.75;0.75;;;;;25.03;45.99;100655.69;4975464;28;45933;-60
2021/06/28 11:15:01;;;;;;;;;0.75;0.75;;;;;24.99;45.41;100660.69;4975388;28;45354;-60
2021/06/28 11:17:39;;;;;;;;;1.00;1.00;;;;;24.91;45.87;100649.44;4975233;28;45275;-61
2021/06/28 11:20:06;;;;;;;;;0.75;0.75;;;;;24.92;45.54;100643.03;4974832;28;46163;-61
2021/06/28 11:23:00;;;;;;;;;3.00;1.00;;;;;24.98;45.61;100648.28;4975419;28;45456;-61
2021/06/28 11:25:55;;;;;;;;;1.00;1.00;;;;;25.10;45.47;100645.66;4975062;28;45310;-62